createdAt,value
2022-08-17T00:00:01.572Z,24.52
2022-08-17T00:02:29.231Z,24.55
2022-08-17T00:04:58.018Z,24.53
2022-08-17T00:07:24.871Z,24.56
2022-08-17T00:09:51.842Z,24.56
2022-08-17T00:12:41.675Z,24.52
2022-08-17T00:15:10.754Z,24.47
2022-08-17T00:17:38.367Z,24.36
2022-08-17T00:20:06.424Z,24.37
2022-08-17T00:22:36.563Z,24.34
2022-08-17T00:25:14.146Z,24.38
2022-08-17T00:27:41.462Z,24.35
2022-08-17T00:30:11.728Z,24.25
2022-08-17T00:33:11.855Z,24.28
2022-08-17T00:35:34.957Z,24.27
2022-08-17T00:38:01.891Z,24.18
2022-08-17T00:40:40.015Z,24.17
2022-08-17T00:43:41.479Z,24.13
2022-08-17T00:46:26.403Z,24.10
2022-08-17T00:48:53.296Z,24.01
2022-08-17T00:51:44.804Z,23.98
2022-08-17T00:54:41.927Z,23.90
2022-08-17T00:57:16.509Z,23.76
2022-08-17T01:00:02.415Z,23.78
2022-08-17T01:02:42.222Z,23.68
2022-08-17T01:05:18.569Z,23.74
2022-08-17T01:07:48.114Z,23.76
2022-08-17T01:10:58.995Z,23.59
2022-08-17T01:13:05.081Z,23.60
2022-08-17T01:15:37.352Z,23.57
2022-08-17T01:18:11.387Z,23.55
2022-08-17T01:20:48.966Z,23.48
2022-08-17T01:23:20.641Z,23.29
2022-08-17T01:25:56.279Z,23.30
2022-08-17T01:28:36.498Z,23.20
2022-08-17T01:31:13.637Z,23.23
2022-08-17T01:33:41.547Z,23.23
2022-08-17T01:36:09.244Z,23.20
2022-08-17T01:38:38.447Z,23.21
2022-08-17T01:41:16.468Z,23.22
2022-08-17T01:44:05.571Z,23.27
2022-08-17T01:46:37.431Z,23.27
2022-08-17T01:49:11.431Z,23.23
2022-08-17T01:51:39.371Z,23.27
2022-08-17T01:54:12.800Z,23.28
2022-08-17T01:56:47.398Z,23.35
2022-08-17T01:59:16.834Z,23.40
2022-08-17T02:01:44.887Z,23.49
2022-08-17T02:04:13.629Z,23.41
2022-08-17T02:06:52.959Z,23.38
2022-08-17T02:09:29.944Z,23.36
2022-08-17T02:11:59.947Z,23.33
2022-08-17T02:14:46.813Z,23.25
2022-08-17T02:17:13.989Z,23.31
2022-08-17T02:19:41.218Z,23.34
2022-08-17T02:22:08.626Z,23.17
2022-08-17T02:24:59.634Z,23.17
2022-08-17T02:27:24.831Z,23.17
2022-08-17T02:29:51.953Z,22.95
2022-08-17T02:32:27.975Z,22.95
2022-08-17T02:35:01.359Z,22.91
2022-08-17T02:37:29.871Z,22.82
2022-08-17T02:39:58.509Z,22.73
2022-08-17T02:42:31.508Z,22.77
2022-08-17T02:44:59.063Z,22.76
2022-08-17T02:47:26.843Z,22.81
2022-08-17T02:49:55.733Z,22.84
2022-08-17T02:52:42.926Z,22.91
2022-08-17T02:55:36.165Z,22.91
2022-08-17T02:58:03.680Z,22.93
2022-08-17T03:00:38.272Z,22.95
2022-08-17T03:03:06.238Z,22.97
2022-08-17T03:05:36.328Z,23.00
2022-08-17T03:08:05.216Z,22.97
2022-08-17T03:10:32.235Z,23.00
2022-08-17T03:12:59.701Z,22.93
2022-08-17T03:15:31.479Z,23.04
2022-08-17T03:17:59.924Z,23.09
2022-08-17T03:20:30.147Z,23.10
2022-08-17T03:23:01.807Z,23.20
2022-08-17T03:25:38.675Z,23.14
2022-08-17T03:28:06.423Z,23.13
2022-08-17T03:30:34.852Z,23.25
2022-08-17T03:33:04.724Z,23.21
2022-08-17T03:35:34.796Z,23.15
2022-08-17T03:38:01.769Z,23.22
2022-08-17T03:40:34.465Z,23.25
2022-08-17T03:43:19.059Z,23.08
2022-08-17T03:46:04.313Z,23.09
2022-08-17T03:48:51.337Z,23.12
2022-08-17T03:51:41.852Z,23.15
2022-08-17T03:54:29.013Z,23.11
2022-08-17T03:57:09.462Z,22.98
2022-08-17T03:59:37.806Z,22.93
2022-08-17T04:02:11.125Z,22.99
2022-08-17T04:04:39.024Z,23.06
2022-08-17T04:07:06.864Z,23.00
2022-08-17T04:09:34.037Z,22.98
2022-08-17T04:12:04.519Z,22.98
2022-08-17T04:14:39.352Z,22.98
2022-08-17T04:17:28.526Z,22.76
2022-08-17T04:19:56.392Z,22.63
2022-08-17T04:22:32.789Z,22.30
2022-08-17T04:25:06.285Z,22.33
2022-08-17T04:27:33.366Z,22.46
2022-08-17T04:30:00.940Z,22.53
2022-08-17T04:33:03.436Z,22.59
2022-08-17T04:35:20.190Z,22.55
2022-08-17T04:37:47.407Z,22.51
2022-08-17T04:40:32.668Z,22.60
2022-08-17T04:43:05.479Z,22.71
2022-08-17T04:45:33.076Z,22.67
2022-08-17T04:48:01.431Z,22.82
2022-08-17T04:50:28.418Z,22.77
2022-08-17T04:52:55.669Z,22.75
2022-08-17T04:55:22.927Z,22.72
2022-08-17T04:57:49.801Z,22.85
2022-08-17T05:00:16.864Z,22.80
2022-08-17T05:02:51.014Z,22.83
2022-08-17T05:05:40.177Z,22.78
2022-08-17T05:08:07.894Z,22.88
2022-08-17T05:10:37.481Z,22.92
2022-08-17T05:13:25.404Z,23.05
2022-08-17T05:15:59.874Z,23.27
2022-08-17T05:18:29.593Z,23.29
2022-08-17T05:20:57.320Z,23.37
2022-08-17T05:23:27.117Z,23.42
2022-08-17T05:26:04.094Z,23.40
2022-08-17T05:28:34.666Z,23.43
2022-08-17T05:31:03.726Z,23.41
2022-08-17T05:33:36.496Z,23.54
2022-08-17T05:36:09.164Z,23.72
2022-08-17T05:38:56.130Z,23.82
2022-08-17T05:41:23.101Z,23.88
2022-08-17T05:43:54.297Z,24.03
2022-08-17T05:46:27.836Z,24.39
2022-08-17T05:49:08.026Z,24.82
2022-08-17T05:51:55.712Z,25.24
2022-08-17T05:54:48.965Z,25.81
2022-08-17T05:57:43.550Z,26.26
2022-08-17T06:00:37.343Z,26.83
2022-08-17T06:03:30.080Z,26.26
2022-08-17T06:06:33.631Z,25.89
2022-08-17T06:09:30.107Z,25.59
2022-08-17T06:12:37.314Z,25.21
2022-08-17T06:15:26.226Z,25.28
2022-08-17T06:18:00.101Z,25.09
2022-08-17T06:20:36.095Z,25.01
2022-08-17T06:23:14.361Z,24.90
2022-08-17T06:25:48.831Z,25.03
2022-08-17T06:28:37.108Z,25.00
2022-08-17T06:31:15.334Z,24.94
2022-08-17T06:33:46.305Z,24.89
2022-08-17T06:37:03.624Z,24.86
2022-08-17T06:40:21.440Z,24.82
2022-08-17T06:43:13.608Z,24.80
2022-08-17T06:46:11.410Z,24.64
2022-08-17T06:48:57.870Z,24.72
2022-08-17T06:51:39.530Z,24.44
2022-08-17T06:54:20.554Z,24.35
2022-08-17T06:57:02.463Z,24.41
2022-08-17T06:59:54.936Z,24.38
2022-08-17T07:02:51.240Z,24.34
2022-08-17T07:05:34.365Z,24.39
2022-08-17T07:08:38.288Z,24.28
2022-08-17T07:11:48.274Z,24.13
2022-08-17T07:14:44.442Z,23.34
2022-08-17T07:17:15.856Z,23.13
2022-08-17T07:19:46.065Z,23.41
2022-08-17T07:22:59.554Z,23.33
2022-08-17T07:25:28.513Z,23.36
2022-08-17T07:28:00.190Z,23.17
2022-08-17T07:30:47.110Z,23.34
2022-08-17T07:33:20.275Z,23.51
2022-08-17T07:35:49.776Z,23.54
2022-08-17T07:38:24.800Z,23.63
2022-08-17T07:41:01.865Z,23.67
2022-08-17T07:43:39.813Z,23.65
2022-08-17T07:46:40.734Z,23.87
2022-08-17T07:49:10.371Z,23.43
2022-08-17T07:51:43.164Z,23.37
2022-08-17T07:54:15.557Z,23.24
2022-08-17T07:57:12.104Z,23.56
2022-08-17T08:00:12.682Z,23.57
2022-08-17T08:02:47.520Z,23.68
2022-08-17T08:05:44.316Z,23.73
2022-08-17T08:08:42.148Z,23.81
2022-08-17T08:11:15.729Z,23.74
2022-08-17T08:13:45.541Z,23.76
2022-08-17T08:16:21.983Z,23.73
2022-08-17T08:18:56.735Z,23.66
2022-08-17T08:21:52.100Z,23.59
2022-08-17T08:24:52.386Z,23.71
2022-08-17T08:27:34.036Z,23.78
2022-08-17T08:30:15.387Z,23.92
2022-08-17T08:33:29.973Z,24.04
2022-08-17T08:37:14.295Z,23.95
2022-08-17T08:39:56.884Z,23.92
2022-08-17T08:42:52.198Z,23.96
2022-08-17T08:46:01.753Z,24.04
2022-08-17T08:49:10.362Z,24.06
2022-08-17T08:52:00.582Z,24.33
2022-08-17T08:54:38.665Z,24.56
2022-08-17T08:57:26.739Z,24.79
2022-08-17T09:00:15.076Z,25.07
2022-08-17T09:03:02.543Z,25.24
2022-08-17T09:06:37.799Z,25.43
2022-08-17T09:09:29.191Z,25.47
2022-08-17T09:12:25.941Z,25.40
2022-08-17T09:15:13.100Z,25.55
2022-08-17T09:19:01.391Z,25.59
2022-08-17T09:21:01.622Z,25.88
2022-08-17T09:23:39.247Z,26.18
2022-08-17T09:26:25.690Z,26.30
2022-08-17T09:29:01.659Z,26.14
2022-08-17T09:32:03.502Z,26.42
2022-08-17T09:34:50.017Z,26.58
2022-08-17T09:37:29.737Z,26.69
2022-08-17T09:40:12.270Z,26.81
2022-08-17T09:43:09.840Z,26.98
2022-08-17T09:45:57.246Z,27.13
2022-08-17T09:48:50.160Z,27.11
2022-08-17T09:51:37.118Z,26.88
2022-08-17T09:54:37.992Z,26.71
2022-08-17T09:57:31.472Z,26.83
2022-08-17T10:00:11.269Z,26.78
2022-08-17T10:03:34.458Z,26.61
2022-08-17T10:06:22.091Z,25.94
2022-08-17T10:09:42.801Z,25.86
2022-08-17T10:12:30.171Z,25.68
2022-08-17T10:15:15.999Z,25.51
2022-08-17T10:18:08.949Z,25.35
2022-08-17T10:21:21.848Z,24.95
2022-08-17T10:24:25.007Z,24.92
2022-08-17T10:26:56.675Z,25.08
2022-08-17T10:29:51.565Z,24.99
2022-08-17T10:32:41.384Z,24.85
2022-08-17T10:35:39.051Z,25.01
2022-08-17T10:38:37.196Z,25.04
2022-08-17T10:41:29.438Z,25.04
2022-08-17T10:44:38.119Z,25.20
2022-08-17T10:47:15.032Z,25.33
2022-08-17T10:49:53.434Z,25.46
2022-08-17T10:52:20.199Z,25.63
2022-08-17T10:54:51.884Z,25.71
2022-08-17T10:57:33.915Z,25.78
2022-08-17T11:00:35.081Z,25.90
2022-08-17T11:03:02.523Z,25.83
2022-08-17T11:05:59.717Z,26.21
2022-08-17T11:08:52.537Z,26.47
2022-08-17T11:11:40.451Z,26.72
2022-08-17T11:14:57.933Z,26.75
2022-08-17T11:17:27.486Z,27.35
2022-08-17T11:20:20.079Z,27.71
2022-08-17T11:23:14.591Z,27.95
2022-08-17T11:25:50.344Z,28.01
2022-08-17T11:28:23.410Z,28.23
2022-08-17T11:30:58.857Z,28.36
2022-08-17T11:33:29.998Z,27.65
2022-08-17T11:36:31.530Z,27.38
2022-08-17T11:39:15.925Z,27.81
2022-08-17T11:42:11.807Z,28.05
2022-08-17T11:45:32.336Z,27.64
2022-08-17T11:48:48.310Z,27.95
2022-08-17T11:51:35.809Z,27.27
2022-08-17T11:54:34.164Z,26.87
2022-08-17T11:57:26.949Z,27.00
2022-08-17T12:00:10.804Z,27.27
2022-08-17T12:02:48.846Z,27.41
2022-08-17T12:05:19.333Z,27.50
2022-08-17T12:07:52.619Z,27.38
2022-08-17T12:10:31.825Z,27.32
2022-08-17T12:13:15.907Z,27.21
2022-08-17T12:15:49.923Z,26.69
2022-08-17T12:18:35.483Z,26.67
2022-08-17T12:21:25.343Z,26.97
2022-08-17T12:24:06.696Z,27.31
2022-08-17T12:26:36.759Z,27.10
2022-08-17T12:29:18.240Z,27.26
2022-08-17T12:32:03.107Z,27.32
2022-08-17T12:34:40.531Z,27.10
2022-08-17T12:37:23.133Z,26.86
2022-08-17T12:39:59.360Z,27.02
2022-08-17T12:42:37.389Z,26.97
2022-08-17T12:45:23.353Z,27.02
2022-08-17T12:48:07.793Z,26.90
2022-08-17T12:50:45.029Z,26.91
2022-08-17T12:53:16.203Z,26.86
2022-08-17T12:55:44.309Z,26.76
2022-08-17T12:58:14.659Z,27.09
2022-08-17T13:00:49.702Z,27.03
2022-08-17T13:03:22.737Z,27.34
2022-08-17T13:05:52.548Z,27.75
2022-08-17T13:08:30.539Z,27.93
2022-08-17T13:11:09.336Z,28.44
2022-08-17T13:13:49.023Z,28.44
2022-08-17T13:16:28.050Z,28.52
2022-08-17T13:19:08.583Z,28.65
2022-08-17T13:21:37.930Z,28.60
2022-08-17T13:24:16.583Z,28.60
2022-08-17T13:27:01.575Z,28.60
2022-08-17T13:29:45.739Z,28.38
2022-08-17T13:32:43.662Z,28.58
2022-08-17T13:35:43.615Z,28.49
2022-08-17T13:38:49.466Z,28.26
2022-08-17T13:41:37.850Z,28.06
2022-08-17T13:44:31.551Z,28.09
2022-08-17T13:46:59.611Z,28.20
2022-08-17T13:49:41.507Z,28.19
2022-08-17T13:52:40.187Z,28.22
2022-08-17T13:55:22.782Z,28.26
2022-08-17T13:58:03.589Z,28.20
2022-08-17T14:00:36.695Z,28.22
2022-08-17T14:03:05.715Z,28.20
2022-08-17T14:05:33.793Z,28.35
2022-08-17T14:08:06.995Z,28.44
2022-08-17T14:10:36.327Z,28.26
2022-08-17T14:13:04.623Z,28.49
2022-08-17T14:15:54.601Z,28.62
2022-08-17T14:18:35.611Z,28.65
2022-08-17T14:21:08.372Z,28.69
2022-08-17T14:23:36.881Z,28.61
2022-08-17T14:26:04.702Z,28.74
2022-08-17T14:28:32.052Z,28.68
2022-08-17T14:31:01.116Z,28.52
2022-08-17T14:33:29.007Z,28.49
2022-08-17T14:35:57.558Z,28.52
2022-08-17T14:38:24.828Z,28.60
2022-08-17T14:40:52.411Z,28.67
2022-08-17T14:43:20.398Z,28.52
2022-08-17T14:45:47.501Z,28.56
2022-08-17T14:48:14.476Z,28.62
2022-08-17T14:50:42.754Z,28.48
2022-08-17T14:53:13.821Z,28.59
2022-08-17T14:55:40.967Z,28.58
2022-08-17T14:58:09.078Z,28.56
2022-08-17T15:00:37.437Z,28.51
2022-08-17T15:03:05.307Z,28.60
2022-08-17T15:05:36.508Z,28.53
2022-08-17T15:08:05.413Z,28.58
2022-08-17T15:10:32.656Z,28.60
2022-08-17T15:13:00.386Z,28.73
2022-08-17T15:15:28.709Z,28.73
2022-08-17T15:17:56.253Z,28.81
2022-08-17T15:20:28.080Z,28.83
2022-08-17T15:22:57.486Z,28.89
2022-08-17T15:25:27.677Z,28.95
2022-08-17T15:27:55.842Z,28.98
2022-08-17T15:30:23.710Z,28.98
2022-08-17T15:32:54.269Z,28.71
2022-08-17T15:35:27.514Z,28.89
2022-08-17T15:38:10.790Z,28.99
2022-08-17T15:40:44.838Z,29.07
2022-08-17T15:43:24.790Z,29.18
2022-08-17T15:46:14.332Z,29.25
2022-08-17T15:48:44.464Z,29.31
2022-08-17T15:51:17.952Z,29.34
2022-08-17T15:54:04.610Z,29.27
2022-08-17T15:56:46.240Z,29.41
2022-08-17T15:59:13.253Z,29.49
2022-08-17T16:02:33.627Z,29.39
2022-08-17T16:04:30.918Z,29.45
2022-08-17T16:06:59.730Z,29.43
2022-08-17T16:09:27.502Z,29.43
2022-08-17T16:11:55.883Z,29.41
2022-08-17T16:14:33.654Z,29.55
2022-08-17T16:17:03.490Z,29.45
2022-08-17T16:19:30.907Z,29.36
2022-08-17T16:21:57.995Z,29.32
2022-08-17T16:24:25.298Z,29.18
2022-08-17T16:26:52.147Z,29.15
2022-08-17T16:29:19.051Z,29.13
2022-08-17T16:31:45.901Z,29.22
2022-08-17T16:34:17.044Z,29.36
2022-08-17T16:36:54.869Z,29.27
2022-08-17T16:39:27.598Z,29.22
2022-08-17T16:41:55.945Z,29.22
2022-08-17T16:44:23.143Z,29.19
2022-08-17T16:46:50.527Z,29.07
2022-08-17T16:49:35.658Z,29.17
2022-08-17T16:52:07.730Z,29.10
2022-08-17T16:54:35.415Z,29.07
2022-08-17T16:57:04.903Z,29.11
2022-08-17T16:59:40.800Z,29.16
2022-08-17T17:02:13.781Z,29.13
2022-08-17T17:04:50.329Z,29.03
2022-08-17T17:07:37.512Z,28.94
2022-08-17T17:10:17.284Z,28.89
2022-08-17T17:13:02.745Z,28.83
2022-08-17T17:15:51.886Z,28.76
2022-08-17T17:18:28.439Z,28.78
2022-08-17T17:20:57.399Z,28.78
2022-08-17T17:23:39.764Z,28.80
2022-08-17T17:26:43.176Z,28.72
2022-08-17T17:29:20.474Z,28.72
2022-08-17T17:32:13.561Z,28.60
2022-08-17T17:35:00.040Z,28.51
2022-08-17T17:37:33.533Z,28.48
2022-08-17T17:40:29.045Z,28.39
2022-08-17T17:43:09.476Z,28.30
2022-08-17T17:45:47.548Z,28.29
2022-08-17T17:48:14.398Z,28.29
2022-08-17T17:51:09.858Z,28.26
2022-08-17T17:53:51.744Z,28.23
2022-08-17T17:56:43.248Z,28.20
2022-08-17T17:59:41.845Z,28.13
2022-08-17T18:02:52.241Z,28.13
2022-08-17T18:05:37.340Z,28.08
2022-08-17T18:08:14.110Z,28.01
2022-08-17T18:10:55.649Z,27.96
2022-08-17T18:14:02.989Z,27.91
2022-08-17T18:16:32.917Z,27.86
2022-08-17T18:19:00.434Z,27.81
2022-08-17T18:21:44.344Z,27.76
2022-08-17T18:24:12.598Z,27.72
2022-08-17T18:26:55.487Z,27.68
2022-08-17T18:29:34.448Z,27.64
2022-08-17T18:32:31.837Z,27.58
2022-08-17T18:35:10.754Z,27.53
2022-08-17T18:38:20.394Z,27.49
2022-08-17T18:41:02.941Z,27.43
2022-08-17T18:43:53.210Z,27.39
2022-08-17T18:46:36.709Z,27.35
2022-08-17T18:49:28.732Z,27.31
2022-08-17T18:52:30.567Z,27.27
2022-08-17T18:55:24.125Z,27.20
2022-08-17T18:57:56.193Z,27.17
2022-08-17T19:00:43.824Z,27.13
2022-08-17T19:03:17.847Z,27.08
2022-08-17T19:05:53.080Z,27.05
2022-08-17T19:08:29.006Z,27.01
2022-08-17T19:10:59.793Z,26.95
2022-08-17T19:13:47.454Z,26.94
2022-08-17T19:16:51.319Z,26.94
2022-08-17T19:19:46.548Z,26.90
2022-08-17T19:22:31.008Z,26.86
2022-08-17T19:25:12.646Z,26.82
2022-08-17T19:28:04.011Z,26.80
2022-08-17T19:30:39.501Z,26.78
2022-08-17T19:33:10.496Z,26.76
2022-08-17T19:36:10.565Z,26.73
2022-08-17T19:39:17.413Z,26.71
2022-08-17T19:42:28.361Z,26.67
2022-08-17T19:45:08.577Z,26.60
2022-08-17T19:48:04.327Z,26.58
2022-08-17T19:50:50.459Z,26.52
2022-08-17T19:53:54.145Z,26.54
2022-08-17T19:56:57.863Z,26.51
2022-08-17T19:59:37.458Z,26.40
2022-08-17T20:02:22.761Z,26.34
2022-08-17T20:04:53.499Z,26.31
2022-08-17T20:07:46.447Z,26.27
2022-08-17T20:10:48.102Z,26.26
2022-08-17T20:13:33.673Z,26.21
2022-08-17T20:16:02.998Z,26.12
2022-08-17T20:19:03.971Z,26.14
2022-08-17T20:21:54.384Z,26.20
2022-08-17T20:24:37.179Z,26.13
2022-08-17T20:27:31.297Z,26.15
2022-08-17T20:30:06.236Z,26.03
2022-08-17T20:32:55.532Z,26.02
2022-08-17T20:36:11.181Z,25.98
2022-08-17T20:38:44.824Z,25.95
2022-08-17T20:41:28.119Z,25.90
2022-08-17T20:43:58.705Z,25.84
2022-08-17T20:46:37.529Z,25.84
2022-08-17T20:49:41.221Z,25.90
2022-08-17T20:52:35.451Z,25.81
2022-08-17T20:55:04.474Z,25.76
2022-08-17T20:57:31.561Z,25.76
2022-08-17T21:00:17.492Z,25.72
2022-08-17T21:02:49.519Z,25.68
2022-08-17T21:06:17.054Z,25.63
2022-08-17T21:08:57.824Z,25.62
2022-08-17T21:11:56.793Z,25.52
2022-08-17T21:14:40.189Z,25.43
2022-08-17T21:17:18.773Z,25.46
2022-08-17T21:20:22.792Z,25.45
2022-08-17T21:23:21.772Z,25.38
2022-08-17T21:26:50.582Z,25.36
2022-08-17T21:29:31.359Z,25.27
2022-08-17T21:32:06.191Z,25.19
2022-08-17T21:34:42.536Z,25.11
2022-08-17T21:37:29.382Z,25.11
2022-08-17T21:40:10.092Z,25.13
2022-08-17T21:42:47.667Z,25.13
2022-08-17T21:45:32.263Z,25.12
2022-08-17T21:48:19.602Z,25.13
2022-08-17T21:51:12.038Z,25.14
2022-08-17T21:53:54.187Z,25.07
2022-08-17T21:56:32.008Z,25.08
2022-08-17T21:59:05.541Z,25.05
2022-08-17T22:01:42.943Z,24.99
2022-08-17T22:04:12.690Z,24.99
2022-08-17T22:06:52.349Z,25.07
2022-08-17T22:09:49.917Z,24.99
2022-08-17T22:12:20.348Z,25.04
2022-08-17T22:14:57.421Z,24.98
2022-08-17T22:17:28.205Z,25.01
2022-08-17T22:20:21.521Z,24.98
2022-08-17T22:23:07.146Z,24.91
2022-08-17T22:25:41.813Z,24.91
2022-08-17T22:28:12.097Z,24.88
2022-08-17T22:30:59.869Z,24.88
2022-08-17T22:33:51.621Z,24.97
2022-08-17T22:36:29.513Z,24.95
2022-08-17T22:39:26.309Z,24.90
2022-08-17T22:41:57.109Z,24.87
2022-08-17T22:44:31.875Z,24.91
2022-08-17T22:47:11.336Z,24.92
2022-08-17T22:50:00.991Z,24.77
2022-08-17T22:53:21.269Z,24.61
2022-08-17T22:56:16.226Z,24.73
2022-08-17T22:59:14.814Z,24.60
2022-08-17T23:01:45.327Z,24.70
2022-08-17T23:04:36.215Z,24.67
2022-08-17T23:07:03.125Z,24.66
2022-08-17T23:09:29.982Z,24.61
2022-08-17T23:11:58.656Z,24.53
2022-08-17T23:14:31.578Z,24.80
2022-08-17T23:16:59.341Z,24.78
2022-08-17T23:19:27.539Z,24.78
2022-08-17T23:21:56.471Z,24.72
2022-08-17T23:24:29.422Z,24.72
2022-08-17T23:26:58.051Z,24.68
2022-08-17T23:29:29.134Z,24.76
2022-08-17T23:31:59.748Z,24.78
2022-08-17T23:34:28.007Z,24.54
2022-08-17T23:36:55.955Z,24.52
2022-08-17T23:39:24.727Z,24.38
2022-08-17T23:41:58.054Z,24.49
2022-08-17T23:44:26.047Z,24.37
2022-08-17T23:46:53.743Z,24.49
2022-08-17T23:49:20.758Z,24.37
2022-08-17T23:51:48.862Z,24.43
2022-08-17T23:54:43.483Z,24.50
2022-08-17T23:57:13.648Z,24.58
2022-08-17T23:59:40.854Z,24.63
